GEC8263 SBKP-EDDF
Flight info
| Callsign | GEC8263 |
|---|---|
| Flight time | N/A |
| Altitude | 37000 |
| Route | KONVI UZ23 ILPIR UZ72 EDNES UN866 USATU/N0498F330 UN866 DEKON/N0495F320 UN866 BUXON/N0492F340 UN866 AMDOL/N0490F330 UN866 IRANI/N0486F350 UN866 TENPA N866 APASO N871 URQUI/N0475F340 N871 GDV N858 VASTO/N0473F360 UN858 AKUDA DCT MINTA N747 OSLEP N858 OXACA M30 HIJ N10 VTB N871 TOPTU DCT NARAK DCT TIS DCT LUSAR/N0466F370 DCT MOPAN DCT MOVUM |
| Aircraft | B77L/H-SDE2E3FGHIJ1J3J4J5M1P2RWXYZ/LB1D1 |
Departure
| Time | N/A |
|---|---|
| Airport | Viracopos International Airport (SBKP) |
Arrival
| Time | 2026-04-18 08:15 |
|---|---|
| Airport | Frankfurt Main Airport (EDDF) |
| Time | Latitude | Longitude | Altitude | Speed | Heading |
|---|---|---|---|---|---|
| 2026-04-18 06:21 | 40.10460 | -3.12382 | 37161 ft | 493 kts | 38° |
| 2026-04-18 06:21 | 40.13089 | -3.09502 | 37161 ft | 493 kts | 38° |
| 2026-04-18 06:22 | 40.18346 | -3.03735 | 37160 ft | 493 kts | 38° |
| 2026-04-18 06:22 | 40.23599 | -2.97963 | 37174 ft | 493 kts | 38° |
| 2026-04-18 06:23 | 40.28859 | -2.92196 | 37167 ft | 493 kts | 38° |
| 2026-04-18 06:23 | 40.34124 | -2.86422 | 37177 ft | 493 kts | 38° |
| 2026-04-18 06:24 | 40.39347 | -2.80677 | 37173 ft | 494 kts | 39° |
| 2026-04-18 06:24 | 40.44605 | -2.74879 | 37180 ft | 494 kts | 39° |
| 2026-04-18 06:25 | 40.49860 | -2.69071 | 37196 ft | 494 kts | 39° |
| 2026-04-18 06:25 | 40.55120 | -2.63245 | 37189 ft | 494 kts | 38° |
| 2026-04-18 06:26 | 40.60376 | -2.57411 | 37192 ft | 494 kts | 38° |
| 2026-04-18 06:26 | 40.65628 | -2.51569 | 37199 ft | 494 kts | 39° |
| 2026-04-18 06:27 | 40.70879 | -2.45716 | 37196 ft | 494 kts | 39° |
| 2026-04-18 06:27 | 40.76124 | -2.39858 | 37196 ft | 494 kts | 39° |
| 2026-04-18 06:28 | 40.81361 | -2.33994 | 37198 ft | 494 kts | 39° |
| 2026-04-18 06:28 | 40.86600 | -2.28115 | 37201 ft | 494 kts | 38° |
| 2026-04-18 06:29 | 40.91832 | -2.22234 | 37203 ft | 494 kts | 38° |
| 2026-04-18 06:29 | 40.97066 | -2.16340 | 37205 ft | 494 kts | 38° |
| 2026-04-18 06:30 | 41.02296 | -2.10436 | 37198 ft | 494 kts | 38° |
| 2026-04-18 06:30 | 41.07523 | -2.04522 | 37198 ft | 494 kts | 39° |
| 2026-04-18 06:31 | 41.12713 | -1.98637 | 37204 ft | 494 kts | 39° |
| 2026-04-18 06:31 | 41.17936 | -1.92702 | 37193 ft | 494 kts | 39° |
| 2026-04-18 06:32 | 41.23153 | -1.86759 | 37186 ft | 494 kts | 39° |
| 2026-04-18 06:32 | 41.28362 | -1.80813 | 37187 ft | 493 kts | 39° |
| 2026-04-18 06:33 | 41.33561 | -1.74866 | 37194 ft | 493 kts | 39° |
| 2026-04-18 06:33 | 41.38756 | -1.68911 | 37179 ft | 493 kts | 39° |
| 2026-04-18 06:34 | 41.43951 | -1.62943 | 37187 ft | 493 kts | 39° |
| 2026-04-18 06:34 | 41.49149 | -1.56957 | 37173 ft | 494 kts | 39° |
| 2026-04-18 06:35 | 41.54343 | -1.50963 | 37178 ft | 494 kts | 39° |
| 2026-04-18 06:35 | 41.58661 | -1.45969 | 37178 ft | 494 kts | 39° |
| 2026-04-18 06:36 | 41.63859 | -1.39947 | 37171 ft | 495 kts | 39° |
| 2026-04-18 06:36 | 41.69053 | -1.33916 | 37180 ft | 494 kts | 39° |
| 2026-04-18 06:37 | 41.74243 | -1.27875 | 37180 ft | 495 kts | 39° |
| 2026-04-18 06:37 | 41.79433 | -1.21820 | 37183 ft | 495 kts | 39° |
| 2026-04-18 06:38 | 41.84627 | -1.15748 | 37183 ft | 495 kts | 39° |
| 2026-04-18 06:38 | 41.89814 | -1.09669 | 37180 ft | 495 kts | 39° |
| 2026-04-18 06:39 | 41.95000 | -1.03580 | 37172 ft | 495 kts | 39° |
| 2026-04-18 06:39 | 42.00181 | -0.97484 | 37175 ft | 495 kts | 39° |
| 2026-04-18 06:40 | 42.05358 | -0.91378 | 37163 ft | 495 kts | 39° |
| 2026-04-18 06:40 | 42.10529 | -0.85265 | 37171 ft | 494 kts | 39° |
| 2026-04-18 06:41 | 42.15690 | -0.79149 | 37172 ft | 494 kts | 39° |
| 2026-04-18 06:41 | 42.20847 | -0.73023 | 37190 ft | 494 kts | 39° |
| 2026-04-18 06:42 | 42.26002 | -0.66887 | 37179 ft | 494 kts | 39° |
| 2026-04-18 06:42 | 42.31126 | -0.60775 | 37185 ft | 495 kts | 39° |
| 2026-04-18 06:43 | 42.36280 | -0.54613 | 37180 ft | 495 kts | 39° |
| 2026-04-18 06:43 | 42.41428 | -0.48445 | 37203 ft | 494 kts | 39° |
| 2026-04-18 06:44 | 42.46579 | -0.42259 | 37201 ft | 495 kts | 39° |
| 2026-04-18 06:44 | 42.51724 | -0.36064 | 37197 ft | 495 kts | 39° |
| 2026-04-18 06:45 | 42.56874 | -0.29849 | 37212 ft | 496 kts | 39° |
| 2026-04-18 06:45 | 42.62021 | -0.23622 | 37220 ft | 496 kts | 39° |
| 2026-04-18 06:46 | 42.67175 | -0.17374 | 37189 ft | 496 kts | 40° |
| 2026-04-18 06:46 | 42.72318 | -0.11125 | 37227 ft | 496 kts | 40° |
| 2026-04-18 06:47 | 42.77447 | -0.04881 | 37220 ft | 494 kts | 40° |
| 2026-04-18 06:47 | 42.82559 | 0.01357 | 37196 ft | 493 kts | 40° |
| 2026-04-18 06:48 | 42.87671 | 0.07608 | 37225 ft | 494 kts | 40° |
| 2026-04-18 06:48 | 42.92730 | 0.13816 | 37232 ft | 493 kts | 40° |
| 2026-04-18 06:49 | 42.97827 | 0.20086 | 37254 ft | 494 kts | 40° |
| 2026-04-18 06:49 | 43.02938 | 0.26381 | 37261 ft | 495 kts | 40° |
| 2026-04-18 06:50 | 43.08053 | 0.32697 | 37242 ft | 496 kts | 40° |
| 2026-04-18 06:50 | 43.13169 | 0.39031 | 37222 ft | 496 kts | 40° |
| 2026-04-18 06:51 | 43.18283 | 0.45376 | 37223 ft | 496 kts | 40° |
| 2026-04-18 06:51 | 43.23391 | 0.51728 | 37236 ft | 496 kts | 40° |
| 2026-04-18 06:52 | 43.28493 | 0.58089 | 37238 ft | 495 kts | 40° |
| 2026-04-18 06:52 | 43.33584 | 0.64452 | 37235 ft | 495 kts | 40° |
| 2026-04-18 06:53 | 43.38669 | 0.70820 | 37236 ft | 494 kts | 40° |
| 2026-04-18 06:53 | 43.43745 | 0.77194 | 37243 ft | 494 kts | 40° |
| 2026-04-18 06:54 | 43.48816 | 0.83577 | 37238 ft | 494 kts | 40° |
| 2026-04-18 06:54 | 43.53882 | 0.89968 | 37229 ft | 494 kts | 40° |
| 2026-04-18 06:55 | 43.58940 | 0.96364 | 37227 ft | 493 kts | 40° |
| 2026-04-18 06:55 | 43.63992 | 1.02768 | 37226 ft | 493 kts | 40° |
| 2026-04-18 06:56 | 43.69008 | 1.09141 | 37216 ft | 493 kts | 40° |
| 2026-04-18 06:56 | 43.74057 | 1.15572 | 37209 ft | 493 kts | 40° |
| 2026-04-18 06:57 | 43.79099 | 1.22010 | 37218 ft | 493 kts | 40° |
| 2026-04-18 06:57 | 43.86652 | 1.31682 | 37217 ft | 493 kts | 40° |
| 2026-04-18 06:58 | 43.91684 | 1.38145 | 37205 ft | 493 kts | 40° |
| 2026-04-18 06:58 | 43.96715 | 1.44623 | 37209 ft | 493 kts | 40° |
| 2026-04-18 06:59 | 44.01740 | 1.51109 | 37203 ft | 493 kts | 41° |
| 2026-04-18 06:59 | 44.06764 | 1.57609 | 37209 ft | 493 kts | 40° |
| 2026-04-18 07:00 | 44.11778 | 1.64113 | 37207 ft | 493 kts | 41° |
| 2026-04-18 07:00 | 44.16789 | 1.70629 | 37196 ft | 493 kts | 41° |
| 2026-04-18 07:01 | 44.21794 | 1.77153 | 37201 ft | 492 kts | 41° |
| 2026-04-18 07:01 | 44.26790 | 1.83679 | 37196 ft | 492 kts | 41° |
| 2026-04-18 07:02 | 44.31782 | 1.90214 | 37198 ft | 492 kts | 41° |
| 2026-04-18 07:02 | 44.36765 | 1.96756 | 37195 ft | 491 kts | 41° |
| 2026-04-18 07:03 | 44.41740 | 2.03302 | 37211 ft | 491 kts | 41° |
| 2026-04-18 07:03 | 44.46711 | 2.09860 | 37202 ft | 491 kts | 41° |
| 2026-04-18 07:04 | 44.51678 | 2.16429 | 37200 ft | 491 kts | 41° |
| 2026-04-18 07:04 | 44.56639 | 2.23008 | 37202 ft | 491 kts | 41° |
| 2026-04-18 07:05 | 44.61596 | 2.29597 | 37213 ft | 491 kts | 41° |
| 2026-04-18 07:05 | 44.66521 | 2.36158 | 37200 ft | 492 kts | 41° |
| 2026-04-18 07:06 | 44.71511 | 2.42823 | 37206 ft | 492 kts | 41° |
| 2026-04-18 07:06 | 44.76430 | 2.49410 | 37207 ft | 492 kts | 41° |
| 2026-04-18 07:07 | 44.81381 | 2.56056 | 37209 ft | 492 kts | 41° |
| 2026-04-18 07:07 | 44.86330 | 2.62715 | 37208 ft | 492 kts | 41° |
| 2026-04-18 07:08 | 44.91278 | 2.69392 | 37206 ft | 492 kts | 41° |
| 2026-04-18 07:08 | 44.96222 | 2.76078 | 37213 ft | 492 kts | 41° |
| 2026-04-18 07:09 | 45.01164 | 2.82779 | 37212 ft | 493 kts | 41° |
| 2026-04-18 07:09 | 45.06103 | 2.89492 | 37208 ft | 493 kts | 41° |
| 2026-04-18 07:10 | 45.11040 | 2.96220 | 37219 ft | 493 kts | 41° |
| 2026-04-18 07:10 | 45.15971 | 3.02957 | 37229 ft | 492 kts | 41° |
| 2026-04-18 07:11 | 45.20901 | 3.09708 | 37202 ft | 493 kts | 41° |
| 2026-04-18 07:11 | 45.25820 | 3.16464 | 37230 ft | 492 kts | 41° |
| 2026-04-18 07:12 | 45.30731 | 3.23226 | 37221 ft | 492 kts | 41° |
| 2026-04-18 07:12 | 45.35642 | 3.30004 | 37225 ft | 492 kts | 41° |
| 2026-04-18 07:13 | 45.40548 | 3.36791 | 37233 ft | 492 kts | 41° |
| 2026-04-18 07:13 | 45.45456 | 3.43600 | 37208 ft | 493 kts | 41° |
| 2026-04-18 07:14 | 45.50359 | 3.50420 | 37209 ft | 493 kts | 41° |
| 2026-04-18 07:14 | 45.55261 | 3.57256 | 37208 ft | 493 kts | 41° |
| 2026-04-18 07:15 | 45.60162 | 3.64106 | 37211 ft | 493 kts | 41° |
| 2026-04-18 07:15 | 45.65059 | 3.70972 | 37203 ft | 493 kts | 41° |
| 2026-04-18 07:16 | 45.69924 | 3.77809 | 37210 ft | 494 kts | 41° |
| 2026-04-18 07:16 | 45.74851 | 3.84748 | 37207 ft | 494 kts | 42° |
| 2026-04-18 07:17 | 45.79712 | 3.91614 | 37208 ft | 494 kts | 42° |
| 2026-04-18 07:17 | 45.84597 | 3.98531 | 37209 ft | 493 kts | 42° |
| 2026-04-18 07:18 | 45.89474 | 4.05456 | 37209 ft | 493 kts | 42° |
| 2026-04-18 07:18 | 45.94346 | 4.12390 | 37210 ft | 493 kts | 42° |
| 2026-04-18 07:19 | 45.99212 | 4.19337 | 37214 ft | 493 kts | 42° |
| 2026-04-18 07:19 | 46.04073 | 4.26294 | 37208 ft | 493 kts | 42° |
| 2026-04-18 07:20 | 46.08932 | 4.33265 | 37213 ft | 493 kts | 42° |
| 2026-04-18 07:20 | 46.13772 | 4.40270 | 37205 ft | 494 kts | 44° |
| 2026-04-18 07:21 | 46.18148 | 4.47925 | 37198 ft | 495 kts | 50° |
| 2026-04-18 07:21 | 46.22349 | 4.55791 | 37207 ft | 494 kts | 50° |
| 2026-04-18 07:22 | 46.26532 | 4.63595 | 37204 ft | 495 kts | 50° |
| 2026-04-18 07:22 | 46.30773 | 4.71432 | 37212 ft | 495 kts | 49° |
| 2026-04-18 07:23 | 46.35027 | 4.79272 | 37208 ft | 495 kts | 50° |
| 2026-04-18 07:23 | 46.39278 | 4.87127 | 37203 ft | 496 kts | 50° |
| 2026-04-18 07:24 | 46.43522 | 4.94995 | 37207 ft | 496 kts | 50° |
| 2026-04-18 07:24 | 46.47761 | 5.02882 | 37215 ft | 496 kts | 50° |
| 2026-04-18 07:25 | 46.51999 | 5.10789 | 37207 ft | 496 kts | 50° |
| 2026-04-18 07:25 | 46.56232 | 5.18709 | 37207 ft | 496 kts | 50° |
| 2026-04-18 07:26 | 46.59747 | 5.25302 | 37210 ft | 496 kts | 50° |
| 2026-04-18 07:26 | 46.63968 | 5.33241 | 37212 ft | 496 kts | 50° |
| 2026-04-18 07:27 | 46.68182 | 5.41190 | 37207 ft | 496 kts | 50° |
| 2026-04-18 07:27 | 46.72388 | 5.49145 | 37208 ft | 495 kts | 50° |
| 2026-04-18 07:28 | 46.76588 | 5.57112 | 37198 ft | 495 kts | 50° |
| 2026-04-18 07:28 | 46.80779 | 5.65085 | 37201 ft | 495 kts | 50° |
| 2026-04-18 07:29 | 46.84962 | 5.73065 | 37219 ft | 495 kts | 50° |
| 2026-04-18 07:29 | 46.89143 | 5.81065 | 37206 ft | 495 kts | 50° |
| 2026-04-18 07:30 | 46.93313 | 5.89069 | 37200 ft | 495 kts | 50° |
| 2026-04-18 07:30 | 46.97477 | 5.97083 | 37212 ft | 494 kts | 50° |
| 2026-04-18 07:31 | 47.01636 | 6.05110 | 37208 ft | 495 kts | 50° |
| 2026-04-18 07:31 | 47.05791 | 6.13152 | 37206 ft | 495 kts | 50° |
| 2026-04-18 07:32 | 47.09945 | 6.21215 | 37210 ft | 495 kts | 51° |
| 2026-04-18 07:32 | 47.14092 | 6.29290 | 37209 ft | 495 kts | 51° |
| 2026-04-18 07:33 | 47.18232 | 6.37375 | 37209 ft | 495 kts | 51° |
| 2026-04-18 07:33 | 47.22364 | 6.45469 | 37222 ft | 495 kts | 51° |
| 2026-04-18 07:34 | 47.26463 | 6.53520 | 37208 ft | 495 kts | 51° |
| 2026-04-18 07:34 | 47.30588 | 6.61647 | 37215 ft | 495 kts | 51° |
| 2026-04-18 07:35 | 47.34703 | 6.69777 | 37212 ft | 494 kts | 51° |
| 2026-04-18 07:35 | 47.38805 | 6.77909 | 37206 ft | 494 kts | 51° |
| 2026-04-18 07:36 | 47.42898 | 6.86042 | 37215 ft | 493 kts | 51° |
| 2026-04-18 07:36 | 47.46986 | 6.94191 | 37211 ft | 493 kts | 51° |
| 2026-04-18 07:37 | 47.51065 | 7.02348 | 37212 ft | 493 kts | 51° |
| 2026-04-18 07:37 | 47.55133 | 7.10507 | 37209 ft | 493 kts | 51° |
| 2026-04-18 07:38 | 47.59200 | 7.18685 | 37223 ft | 493 kts | 51° |
| 2026-04-18 07:38 | 47.63261 | 7.26877 | 37207 ft | 493 kts | 52° |
| 2026-04-18 07:39 | 47.67313 | 7.35077 | 37204 ft | 493 kts | 52° |
| 2026-04-18 07:39 | 47.71361 | 7.43293 | 37209 ft | 493 kts | 52° |
| 2026-04-18 07:40 | 47.75402 | 7.51519 | 37211 ft | 493 kts | 52° |
| 2026-04-18 07:40 | 47.79442 | 7.59768 | 37213 ft | 494 kts | 52° |
| 2026-04-18 07:41 | 47.83480 | 7.68037 | 37208 ft | 494 kts | 52° |
| 2026-04-18 07:41 | 47.87514 | 7.76323 | 37205 ft | 494 kts | 52° |
| 2026-04-18 07:42 | 47.91541 | 7.84621 | 37204 ft | 494 kts | 52° |
| 2026-04-18 07:42 | 47.95539 | 7.92882 | 37223 ft | 494 kts | 52° |
| 2026-04-18 07:43 | 47.99554 | 8.01207 | 37205 ft | 494 kts | 52° |
| 2026-04-18 07:43 | 48.03567 | 8.09551 | 37202 ft | 494 kts | 52° |
| 2026-04-18 07:44 | 48.07569 | 8.17898 | 37205 ft | 494 kts | 52° |
| 2026-04-18 07:44 | 48.11564 | 8.26255 | 37192 ft | 494 kts | 52° |
| 2026-04-18 07:45 | 48.15550 | 8.34620 | 37206 ft | 493 kts | 52° |
| 2026-04-18 07:45 | 48.19543 | 8.43024 | 36653 ft | 502 kts | 52° |
| 2026-04-18 07:46 | 48.21570 | 8.47298 | 36039 ft | 502 kts | 52° |
| 2026-04-18 07:46 | 48.23574 | 8.51536 | 35572 ft | 495 kts | 52° |
| 2026-04-18 07:46 | 48.25550 | 8.55722 | 35073 ft | 490 kts | 52° |
| 2026-04-18 07:46 | 48.27510 | 8.59880 | 34588 ft | 485 kts | 53° |
| 2026-04-18 07:47 | 48.29451 | 8.64002 | 34115 ft | 481 kts | 53° |
| 2026-04-18 07:47 | 48.31373 | 8.68089 | 33576 ft | 477 kts | 53° |
| 2026-04-18 07:47 | 48.33275 | 8.72137 | 33082 ft | 472 kts | 53° |
| 2026-04-18 07:47 | 48.35159 | 8.76155 | 32609 ft | 468 kts | 53° |
| 2026-04-18 07:48 | 48.37024 | 8.80140 | 32140 ft | 464 kts | 53° |
| 2026-04-18 07:48 | 48.38870 | 8.84089 | 31679 ft | 459 kts | 53° |
| 2026-04-18 07:48 | 48.40699 | 8.88003 | 31213 ft | 455 kts | 53° |
| 2026-04-18 07:48 | 48.42508 | 8.91882 | 30776 ft | 452 kts | 53° |
| 2026-04-18 07:49 | 48.44353 | 8.95657 | 30311 ft | 443 kts | 45° |
| 2026-04-18 07:49 | 48.46706 | 8.98520 | 29819 ft | 431 kts | 26° |
| 2026-04-18 07:49 | 48.49385 | 9.00244 | 29348 ft | 420 kts | 11° |
| 2026-04-18 07:49 | 48.52262 | 9.00946 | 28890 ft | 409 kts | 1° |
| 2026-04-18 07:50 | 48.55026 | 9.01370 | 28744 ft | 402 kts | 5° |
| 2026-04-18 07:50 | 48.57821 | 9.01866 | 28738 ft | 408 kts | 359° |
| 2026-04-18 07:50 | 48.60698 | 9.01984 | 28746 ft | 420 kts | 357° |
| 2026-04-18 07:50 | 48.63640 | 9.01991 | 28758 ft | 423 kts | 356° |
| 2026-04-18 07:51 | 48.69511 | 9.01966 | 28745 ft | 420 kts | 356° |
| 2026-04-18 07:51 | 48.75348 | 9.02000 | 28366 ft | 422 kts | 357° |
| 2026-04-18 07:52 | 48.78276 | 9.02036 | 27869 ft | 419 kts | 357° |
| 2026-04-18 07:52 | 48.81181 | 9.02081 | 27403 ft | 415 kts | 357° |
| 2026-04-18 07:52 | 48.84061 | 9.02130 | 26940 ft | 412 kts | 357° |
| 2026-04-18 07:52 | 48.86908 | 9.02180 | 26486 ft | 408 kts | 357° |
| 2026-04-18 07:53 | 48.89731 | 9.02229 | 26046 ft | 404 kts | 357° |
| 2026-04-18 07:53 | 48.92535 | 9.02328 | 25624 ft | 401 kts | 359° |
| 2026-04-18 07:53 | 48.95308 | 9.02558 | 25237 ft | 398 kts | 0° |
| 2026-04-18 07:53 | 48.98060 | 9.02821 | 24814 ft | 395 kts | 0° |
| 2026-04-18 07:54 | 49.00794 | 9.03092 | 24389 ft | 393 kts | 0° |
| 2026-04-18 07:54 | 49.03513 | 9.03364 | 23969 ft | 390 kts | 0° |
| 2026-04-18 07:54 | 49.06215 | 9.03528 | 23384 ft | 389 kts | 356° |
| 2026-04-18 07:54 | 49.08927 | 9.03354 | 22768 ft | 389 kts | 353° |
| 2026-04-18 07:55 | 49.11600 | 9.03116 | 22522 ft | 380 kts | 354° |
| 2026-04-18 07:55 | 49.14226 | 9.02941 | 22162 ft | 376 kts | 355° |
| 2026-04-18 07:55 | 49.16828 | 9.02790 | 21743 ft | 373 kts | 354° |
| 2026-04-18 07:55 | 49.19401 | 9.02635 | 21437 ft | 367 kts | 354° |
| 2026-04-18 07:56 | 49.21936 | 9.02479 | 21149 ft | 362 kts | 354° |
| 2026-04-18 07:56 | 49.24451 | 9.02323 | 20887 ft | 362 kts | 354° |
| 2026-04-18 07:56 | 49.26977 | 9.02165 | 20634 ft | 365 kts | 354° |
| 2026-04-18 07:56 | 49.29522 | 9.02006 | 20364 ft | 367 kts | 354° |
| 2026-04-18 07:57 | 49.32064 | 9.01849 | 20098 ft | 365 kts | 354° |
| 2026-04-18 07:57 | 49.34590 | 9.01693 | 19802 ft | 362 kts | 354° |
| 2026-04-18 07:57 | 49.37094 | 9.01540 | 19430 ft | 358 kts | 354° |
| 2026-04-18 07:57 | 49.39569 | 9.01390 | 19201 ft | 350 kts | 354° |
| 2026-04-18 07:58 | 49.44261 | 9.01108 | 19056 ft | 325 kts | 354° |
| 2026-04-18 07:58 | 49.46476 | 9.00973 | 18971 ft | 313 kts | 354° |
| 2026-04-18 07:58 | 49.48610 | 9.00842 | 18892 ft | 301 kts | 354° |
| 2026-04-18 07:59 | 49.50648 | 9.00717 | 18632 ft | 296 kts | 354° |
| 2026-04-18 07:59 | 49.52782 | 9.00580 | 17699 ft | 312 kts | 354° |
| 2026-04-18 07:59 | 49.54980 | 9.00434 | 16733 ft | 329 kts | 354° |
| 2026-04-18 07:59 | 49.57288 | 9.00285 | 16110 ft | 334 kts | 354° |
| 2026-04-18 08:00 | 49.59618 | 9.00140 | 15570 ft | 336 kts | 354° |
| 2026-04-18 08:00 | 49.61960 | 8.99997 | 15047 ft | 337 kts | 354° |
| 2026-04-18 08:00 | 49.64338 | 8.99851 | 14588 ft | 337 kts | 354° |
| 2026-04-18 08:00 | 49.66644 | 8.99709 | 14188 ft | 335 kts | 354° |
| 2026-04-18 08:01 | 49.68962 | 8.99567 | 13768 ft | 332 kts | 355° |
| 2026-04-18 08:01 | 49.71266 | 8.99421 | 13289 ft | 331 kts | 355° |
| 2026-04-18 08:01 | 49.73565 | 8.99277 | 12830 ft | 330 kts | 355° |
| 2026-04-18 08:01 | 49.75858 | 8.99135 | 12396 ft | 329 kts | 355° |
| 2026-04-18 08:02 | 49.78136 | 8.98993 | 12026 ft | 326 kts | 355° |
| 2026-04-18 08:02 | 49.80397 | 8.98849 | 11621 ft | 325 kts | 356° |
| 2026-04-18 08:02 | 49.82652 | 8.98709 | 11219 ft | 324 kts | 356° |
| 2026-04-18 08:02 | 49.84892 | 8.98572 | 10891 ft | 319 kts | 356° |
| 2026-04-18 08:03 | 49.87067 | 8.98437 | 10811 ft | 307 kts | 356° |
| 2026-04-18 08:03 | 49.89157 | 8.98307 | 10712 ft | 295 kts | 356° |
| 2026-04-18 08:03 | 49.91188 | 8.98178 | 10376 ft | 293 kts | 356° |
| 2026-04-18 08:03 | 49.93227 | 8.98048 | 9887 ft | 289 kts | 356° |
| 2026-04-18 08:04 | 49.95180 | 8.97926 | 9527 ft | 273 kts | 356° |
| 2026-04-18 08:04 | 49.97024 | 8.97811 | 9219 ft | 259 kts | 356° |
| 2026-04-18 08:04 | 49.98841 | 8.97695 | 9034 ft | 264 kts | 356° |
| 2026-04-18 08:04 | 50.00704 | 8.97576 | 8809 ft | 273 kts | 356° |
| 2026-04-18 08:05 | 50.02602 | 8.97674 | 8415 ft | 274 kts | 14° |
| 2026-04-18 08:05 | 50.04271 | 8.99073 | 8053 ft | 277 kts | 46° |
| 2026-04-18 08:05 | 50.05312 | 9.01565 | 7737 ft | 275 kts | 69° |
| 2026-04-18 08:05 | 50.05963 | 9.04363 | 7406 ft | 276 kts | 71° |
| 2026-04-18 08:06 | 50.06613 | 9.07186 | 7085 ft | 277 kts | 71° |
| 2026-04-18 08:06 | 50.07261 | 9.10005 | 6731 ft | 275 kts | 71° |
| 2026-04-18 08:06 | 50.07968 | 9.12739 | 6353 ft | 270 kts | 60° |
| 2026-04-18 08:06 | 50.09244 | 9.14836 | 5976 ft | 267 kts | 31° |
| 2026-04-18 08:07 | 50.10941 | 9.15701 | 5584 ft | 251 kts | 360° |
| 2026-04-18 08:07 | 50.12613 | 9.15246 | 5300 ft | 242 kts | 340° |
| 2026-04-18 08:07 | 50.14174 | 9.14340 | 5036 ft | 237 kts | 331° |
| 2026-04-18 08:07 | 50.15396 | 9.12682 | 4711 ft | 234 kts | 298° |
| 2026-04-18 08:08 | 50.15810 | 9.10303 | 4455 ft | 229 kts | 265° |
| 2026-04-18 08:08 | 50.15510 | 9.07899 | 4197 ft | 226 kts | 254° |
| 2026-04-18 08:08 | 50.15082 | 9.05552 | 4072 ft | 224 kts | 252° |
| 2026-04-18 08:08 | 50.14588 | 9.03237 | 4038 ft | 227 kts | 250° |
| 2026-04-18 08:09 | 50.14053 | 9.00908 | 4005 ft | 230 kts | 249° |
| 2026-04-18 08:09 | 50.13501 | 8.98578 | 4007 ft | 228 kts | 249° |
| 2026-04-18 08:09 | 50.12954 | 8.96264 | 4004 ft | 228 kts | 249° |
| 2026-04-18 08:09 | 50.12404 | 8.93949 | 4007 ft | 228 kts | 249° |
| 2026-04-18 08:10 | 50.11853 | 8.91634 | 3996 ft | 228 kts | 249° |
| 2026-04-18 08:10 | 50.11311 | 8.89352 | 3990 ft | 220 kts | 249° |
| 2026-04-18 08:10 | 50.10791 | 8.87172 | 3967 ft | 209 kts | 249° |
| 2026-04-18 08:10 | 50.10291 | 8.85068 | 3921 ft | 208 kts | 249° |
| 2026-04-18 08:11 | 50.09788 | 8.82949 | 3627 ft | 205 kts | 249° |
| 2026-04-18 08:11 | 50.09311 | 8.80941 | 3352 ft | 190 kts | 250° |
| 2026-04-18 08:11 | 50.08876 | 8.79110 | 3084 ft | 174 kts | 250° |
| 2026-04-18 08:11 | 50.08458 | 8.77352 | 2910 ft | 176 kts | 250° |
| 2026-04-18 08:12 | 50.08045 | 8.75611 | 2638 ft | 165 kts | 250° |
| 2026-04-18 08:12 | 50.07745 | 8.73981 | 2386 ft | 150 kts | 262° |
| 2026-04-18 08:12 | 50.07603 | 8.72394 | 2157 ft | 149 kts | 263° |
| 2026-04-18 08:12 | 50.07401 | 8.70824 | 1957 ft | 147 kts | 254° |
| 2026-04-18 08:13 | 50.07054 | 8.69326 | 1836 ft | 148 kts | 251° |
| 2026-04-18 08:13 | 50.06692 | 8.67825 | 1713 ft | 148 kts | 252° |
| 2026-04-18 08:13 | 50.06347 | 8.66354 | 1531 ft | 148 kts | 250° |
| 2026-04-18 08:13 | 50.05970 | 8.64848 | 1285 ft | 150 kts | 251° |
| 2026-04-18 08:14 | 50.05612 | 8.63318 | 1071 ft | 150 kts | 251° |
| 2026-04-18 08:14 | 50.05248 | 8.61772 | 815 ft | 155 kts | 250° |
| 2026-04-18 08:14 | 50.04998 | 8.60715 | 676 ft | 155 kts | 249° |
| 2026-04-18 08:14 | 50.04622 | 8.59159 | 478 ft | 153 kts | 250° |
| 2026-04-18 08:15 | 50.04255 | 8.57626 | 372 ft | 143 kts | 251° |
| 2026-04-18 08:15 | 50.03959 | 8.56379 | 363 ft | 97 kts | 250° |
| 2026-04-18 08:15 | 50.03792 | 8.55681 | 363 ft | 41 kts | 250° |
| 2026-04-18 08:15 | 50.03690 | 8.55249 | 355 ft | 26 kts | 254° |
| 2026-04-18 08:16 | 50.03696 | 8.54992 | 358 ft | 15 kts | 280° |
| 2026-04-18 08:16 | 50.03709 | 8.54874 | 358 ft | 7 kts | 279° |
| 2026-04-18 08:16 | 50.03712 | 8.54839 | 354 ft | 0 kts | 278° |
| 2026-04-18 08:17 | 50.03712 | 8.54834 | 354 ft | 1 kts | 278° |
| 2026-04-18 08:17 | 50.03714 | 8.54823 | 354 ft | 2 kts | 279° |
| 2026-04-18 08:17 | 50.03715 | 8.54810 | 352 ft | 0 kts | 280° |
| 2026-04-18 08:17 | 50.03716 | 8.54805 | 352 ft | 1 kts | 280° |
| 2026-04-18 08:18 | 50.03716 | 8.54803 | 353 ft | 0 kts | 280° |
| 2026-04-18 08:20 | 50.03719 | 8.54774 | 356 ft | 10 kts | 280° |
| 2026-04-18 08:20 | 50.03724 | 8.54599 | 355 ft | 19 kts | 255° |
| 2026-04-18 08:20 | 50.03692 | 8.54447 | 352 ft | 10 kts | 264° |
| 2026-04-18 08:21 | 50.03730 | 8.54380 | 355 ft | 8 kts | 333° |
| 2026-04-18 08:21 | 50.03761 | 8.54360 | 357 ft | 1 kts | 339° |
| 2026-04-18 08:21 | 50.03772 | 8.54353 | 357 ft | 4 kts | 339° |
| 2026-04-18 08:21 | 50.03834 | 8.54317 | 357 ft | 12 kts | 340° |
| 2026-04-18 08:22 | 50.03915 | 8.54270 | 359 ft | 12 kts | 340° |
| 2026-04-18 08:22 | 50.03982 | 8.54233 | 358 ft | 8 kts | 348° |
| 2026-04-18 08:22 | 50.04016 | 8.54299 | 360 ft | 9 kts | 69° |
| 2026-04-18 08:22 | 50.04023 | 8.54327 | 361 ft | 0 kts | 69° |